Arnold Air Force Base, TN

6:06 PM CDT on October 22, 2014 (GMT -0500)
Decherd | Change Station
CLOSE
Current Station
Personal Weather Station
Location: Decherd, TN
Elevation: 915 ft
Nearby Weather Stations
Active Advisory: Frost Advisory

Elev 915 ft 35.20 °N, 86.09 °W | Updated 14 minutes ago

Clear
Clear
59.3 °F
Feels Like 59.3 °F
N
2.0
Wind Variable Wind from North
Gusts 6.0 mph

Today
High -- | Low -- °F
--% Chance of Precip.
Yesterday
High -- | Low -- °F
Precip. -- in
6:56 AM 6:00 PM
Waning Crescent, 1% visible
Pressure 30.17 in
Visibility 10.0 miles
Clouds Clear
Dew Point 43 °F
Humidity 55%
Rainfall 0.00 in
Snow Depth Not available.
UV 0 out of 12
Pollen 2.10 out of 12
Air Quality Not available.
Flu Activity Sporadic
METAR KBGF 222255Z AUTO 01006KT 10SM CLR 13/05 A3017 RMK

More Conditions Fewer Conditions

Pressure 30.17 in
Visibility 10.0 miles
Clouds Clear
Dew Point 43 °F
Humidity 55%
Rainfall 0.00 in
Snow Depth Not available.
UV 0 out of 12
Pollen 2.10 out of 12
Air Quality Not available.
Flu Activity Sporadic
METAR KBGF 222255Z AUTO 01006KT 10SM CLR 13/05 A3017 RMK

More Conditions Fewer Conditions

10-Day Weather Forecast

Almanac

Astronomy

Oct. 22, 2014 Rise Set
Actual Time 6:56 AM CDT 6:00 PM CDT
Civil Twilight 6:30 AM CDT 6:26 PM CDT
Nautical Twilight 6:01 AM CDT 6:55 PM CDT
Astronomical Twilight 5:31 AM CDT 7:25 PM CDT
Moon 5:40 AM CDT 5:24 PM CDT
Length of Visible Light 11h 55m
Length of Day
11h 03m
Tomorrow will be 2m 5s shorter.
Waning Crescent, 1% of the Moon is Illuminated
Today
Waning Crescent
Oct 23
New
Oct 30
First Quarter
Nov 6
Full
Nov 14
Last Quarter

Today's Extremes

State Highs State Lows

Community

WunderPhotos

Upload Photos

1,764,071 photos uploaded!

WunderBlogs® & News

Nearby

Snow Depth

Station Depth Elevation
No new snow has been reported.

Earthquake Activity

City Distance Mag. Time & Date
No recent earthquake activity has been reported nearby.
Minimum magnitude displayed is 2.5.

Coastal Water Temperatures

Place Temperature
No Stations Reporting

Nearby Weather Stations